MSSS/SAL METAR and TAF weather

Enter ICAO airport designator
Station Type Date Time Source
MSSS METAR 2019/12/08 03:50 UTC NOAA

MSSS 080350Z 34005KT CAVOK 23/17 Q1020 A3013


Station Type Date Time Source
MSSS Decoded METAR 2019/12/08 03:50 UTC NOAA

San Salvador / Ilopango, El Salvador (MSSS) 13-42N 089-07W 621M
Dec 07, 2019 - 10:50 PM EST / 2019.12.08 0350 UTC
Wind: from the NNW (340 degrees) at 6 MPH (5 KT):0
Visibility: greater than 7 mile(s):0
Temperature: 73 F (23 C)
Dew Point: 62 F (17 C)
Relative Humidity: 68%
Pressure (altimeter): 30.13 in. Hg (1020 hPa)
ob: MSSS 080350Z 34005KT CAVOK 23/17 Q1020 A3013
cycle: 4

Station Type Date Time Source
MSSS TAF 2019/12/08 06:50 UTC NOAA

TAF MSSS 080325Z 0806/0906 36006KT CAVOK TX30/0819Z TN20/0811Z
FM081200 35008KT
TEMPO 0819/0824 9999 FEW050
FM090000 35004KT SCT060

Example: see airport list